Time;durP1;ratioP1;P1;durP2;ratioP2;P2;SDS_P1;SDS_P2;PMS_P1;PMS_P2;Temp;Humidity;BMP_temperature;BMP_pressure;BME280_temperature;BME280_humidity;BME280_pressure;Samples;Min_cycle;Max_cycle;Signal;HPM_P1;HPM_P2
2023/02/15 00:00:24;;;;;;;5.70;2.20;;;;;;;18.61;23.97;100907.29;108313;1251;74371;-66
2023/02/15 00:02:52;;;;;;;5.80;2.10;;;;;;;18.32;24.26;100913.76;108262;1251;70720;-65
2023/02/15 00:05:20;;;;;;;3.90;1.80;;;;;;;18.14;24.38;100911.34;108315;1251;71767;-66
2023/02/15 00:07:48;;;;;;;3.90;1.80;;;;;;;18.31;24.31;100911.32;108355;1251;62152;-65
2023/02/15 00:10:17;;;;;;;4.60;1.90;;;;;;;18.41;24.31;100910.34;108327;1251;59260;-64
2023/02/15 00:12:46;;;;;;;4.90;2.00;;;;;;;18.49;24.12;100913.14;108323;1251;75170;-63
2023/02/15 00:15:14;;;;;;;5.90;2.00;;;;;;;18.91;23.83;100914.93;108337;1251;70991;-66
2023/02/15 00:17:48;;;;;;;6.60;2.20;;;;;;;18.87;23.77;100915.38;108380;1251;73051;-65
2023/02/15 00:20:18;;;;;;;3.10;1.70;;;;;;;18.74;23.87;100912.04;108429;1251;62039;-67
2023/02/15 00:22:46;;;;;;;5.00;1.90;;;;;;;18.47;24.12;100914.46;108413;1251;60413;-64
2023/02/15 00:25:14;;;;;;;4.10;1.90;;;;;;;18.43;24.12;100908.84;108416;1251;74813;-66
2023/02/15 00:27:43;;;;;;;4.90;1.70;;;;;;;18.14;24.28;100909.41;108306;1251;71351;-65
2023/02/15 00:30:12;;;;;;;3.40;1.60;;;;;;;18.21;24.25;100907.25;108390;1256;73985;-63
2023/02/15 00:32:41;;;;;;;4.10;1.80;;;;;;;18.22;24.25;100908.28;108371;1253;61868;-66
2023/02/15 00:35:09;;;;;;;4.40;1.60;;;;;;;18.47;24.02;100911.98;108249;1253;60313;-65
2023/02/15 00:37:39;;;;;;;8.20;1.90;;;;;;;18.36;24.01;100912.46;108362;1252;75133;-66
2023/02/15 00:40:07;;;;;;;2.60;1.50;;;;;;;18.46;23.91;100914.02;108247;1256;71227;-65
2023/02/15 00:42:36;;;;;;;2.90;1.60;;;;;;;18.40;23.93;100914.88;108364;1253;72466;-66
2023/02/15 00:45:06;;;;;;;3.90;1.80;;;;;;;18.17;24.05;100913.84;108430;1252;62273;-66
2023/02/15 00:47:35;;;;;;;3.40;1.60;;;;;;;17.97;24.17;100916.41;108402;1253;60339;-65
2023/02/15 00:50:05;;;;;;;4.20;1.60;;;;;;;18.23;24.02;100918.89;108373;1252;75093;-64
2023/02/15 00:52:34;;;;;;;2.10;1.40;;;;;;;18.24;24.02;100918.11;108295;1252;69279;-65
2023/02/15 00:55:04;;;;;;;4.30;1.60;;;;;;;18.29;23.87;100916.40;108340;1252;73607;-65
2023/02/15 00:57:32;;;;;;;3.50;1.80;;;;;;;18.12;24.00;100918.91;108321;1253;59125;-64
2023/02/15 01:00:01;;;;;;;3.30;1.50;;;;;;;18.33;23.73;100921.86;108348;1254;61359;-66
2023/02/15 01:02:30;;;;;;;3.00;1.70;;;;;;;18.14;23.95;100922.73;108393;1253;75076;-65
2023/02/15 01:04:59;;;;;;;3.20;1.70;;;;;;;17.89;24.19;100924.10;108241;1253;71595;-65
2023/02/15 01:07:27;;;;;;;3.30;1.60;;;;;;;17.61;24.37;100922.61;108242;1253;73404;-65
2023/02/15 01:09:55;;;;;;;2.40;1.60;;;;;;;18.13;23.98;100927.08;108375;1253;62449;-65
2023/02/15 01:12:28;;;;;;;3.20;1.40;;;;;;;18.32;23.77;100924.02;108277;1253;61894;-65
2023/02/15 01:14:57;;;;;;;5.20;1.60;;;;;;;18.75;23.39;100929.08;108199;1253;74933;-66
2023/02/15 01:17:25;;;;;;;2.20;1.40;;;;;;;18.44;23.62;100929.55;108281;1252;70984;-65
2023/02/15 01:19:56;;;;;;;2.60;1.40;;;;;;;18.67;23.40;100935.05;108246;1253;73455;-65
2023/02/15 01:22:25;;;;;;;3.60;1.30;;;;;;;18.65;23.35;100929.27;108237;1253;62157;-65
2023/02/15 01:24:55;;;;;;;3.00;1.40;;;;;;;18.76;23.19;100930.23;108264;1253;60325;-65
2023/02/15 01:27:23;;;;;;;3.20;1.50;;;;;;;19.03;23.05;100931.51;108285;1256;74870;-66
2023/02/15 01:29:53;;;;;;;3.60;1.70;;;;;;;18.91;23.12;100932.40;108290;1251;70516;-65
2023/02/15 01:32:22;;;;;;;2.90;1.50;;;;;;;18.33;23.54;100930.05;108354;1251;73679;-65
2023/02/15 01:34:50;;;;;;;1.70;1.40;;;;;;;18.42;23.49;100929.33;108335;1251;61828;-66
2023/02/15 01:37:20;;;;;;;2.90;1.60;;;;;;;18.41;23.50;100931.55;108342;1251;61313;-64
2023/02/15 01:39:48;;;;;;;1.40;1.30;;;;;;;18.15;23.63;100931.17;108402;1251;75265;-65
2023/02/15 01:42:23;;;;;;;1.90;1.20;;;;;;;18.85;23.07;100928.66;108368;1251;68707;-66
2023/02/15 01:44:58;;;;;;;5.20;1.60;;;;;;;18.81;23.12;100931.55;108233;1251;168995;-65
2023/02/15 01:48:22;;;;;;;3.00;1.40;;;;;;;14.78;27.48;100942.27;104973;1289;600607;-65
2023/02/15 01:50:58;;;;;;;2.90;1.50;;;;;;;17.03;24.92;100937.86;107383;1263;59690;-66
2023/02/15 01:53:33;;;;;;;1.80;1.30;;;;;;;17.28;24.54;100939.42;107372;1263;61034;-64
2023/02/15 01:56:15;;;;;;;2.30;1.50;;;;;;;17.56;24.29;100935.66;107389;1265;73457;-65
2023/02/15 01:58:44;;;;;;;2.50;1.50;;;;;;;17.70;24.00;100930.98;107390;1263;70326;-65
2023/02/15 02:01:13;;;;;;;3.10;1.50;;;;;;;17.76;23.93;100933.52;107151;1261;255670;-65
2023/02/15 02:03:59;;;;;;;3.90;1.60;;;;;;;18.01;23.66;100935.73;107497;1261;60602;-65
2023/02/15 02:06:29;;;;;;;4.50;1.50;;;;;;;17.93;23.56;100939.19;107627;1260;61296;-64
2023/02/15 02:08:57;;;;;;;2.50;1.50;;;;;;;18.07;23.34;100934.66;107673;1260;73064;-66
2023/02/15 02:11:26;;;;;;;3.40;1.50;;;;;;;17.91;23.23;100941.08;107531;1260;71819;-66
2023/02/15 02:13:55;;;;;;;3.20;1.80;;;;;;;17.91;23.28;100945.15;107525;1260;73856;-66
2023/02/15 02:16:27;;;;;;;2.70;1.60;;;;;;;18.20;23.06;100946.73;107511;1260;60531;-63
2023/02/15 02:18:58;;;;;;;3.30;1.40;;;;;;;18.29;23.00;100943.57;107769;1259;61328;-65
2023/02/15 02:21:33;;;;;;;3.70;1.60;;;;;;;18.55;22.92;100942.30;108062;1253;73449;-65
2023/02/15 02:24:29;;;;;;;3.20;1.50;;;;;;;18.46;22.89;100938.20;108103;1253;69784;-63
2023/02/15 02:27:03;;;;;;;3.50;1.60;;;;;;;18.79;22.61;100941.27;107891;1253;73315;-64
2023/02/15 02:29:37;;;;;;;2.80;1.70;;;;;;;18.78;22.66;100943.27;108093;1253;60780;-63
2023/02/15 02:32:27;;;;;;;3.60;1.70;;;;;;;18.45;22.71;100944.13;108016;1253;61327;-63
2023/02/15 02:34:59;;;;;;;2.10;1.40;;;;;;;18.62;22.68;100942.05;108115;1253;74031;-63
2023/02/15 02:38:01;;;;;;;1.80;1.40;;;;;;;18.73;22.59;100945.00;108139;1254;71636;-65
2023/02/15 02:40:55;;;;;;;2.80;1.60;;;;;;;18.84;22.59;100938.69;107788;1253;73803;-64
2023/02/15 02:43:38;;;;;;;2.60;1.60;;;;;;;18.37;22.92;100946.52;107962;1253;59005;-63
2023/02/15 02:46:08;;;;;;;2.80;1.60;;;;;;;18.56;22.88;100946.49;108121;1253;61282;-65
2023/02/15 02:48:38;;;;;;;3.50;1.60;;;;;;;18.60;22.82;100944.66;108097;1253;73005;-66
2023/02/15 02:51:10;;;;;;;1.90;1.70;;;;;;;18.55;22.66;100951.90;108120;1257;71930;-66
2023/02/15 02:53:46;;;;;;;2.10;1.70;;;;;;;19.12;22.26;100954.29;108024;1253;73343;-64
2023/02/15 02:56:29;;;;;;;2.40;1.70;;;;;;;19.36;21.95;100955.88;108011;1253;62123;-62
2023/02/15 02:59:33;;;;;;;1.80;1.50;;;;;;;18.71;22.21;100960.73;108095;1253;61307;-64
2023/02/15 03:02:05;;;;;;;3.10;1.30;;;;;;;17.51;23.27;100970.20;107820;1253;72587;-65
2023/02/15 03:04:39;;;;;;;5.40;1.60;;;;;;;18.69;22.44;100969.59;108118;1254;71478;-65
2023/02/15 03:07:10;;;;;;;1.60;1.40;;;;;;;19.43;21.85;100964.15;108144;1253;73924;-66
2023/02/15 03:09:43;;;;;;;2.80;1.70;;;;;;;18.64;22.25;100966.28;107975;1253;60254;-62
2023/02/15 03:12:17;;;;;;;1.50;1.40;;;;;;;18.77;22.25;100968.95;108035;1254;59800;-65
2023/02/15 03:14:51;;;;;;;1.70;1.30;;;;;;;18.60;22.35;100969.73;108096;1253;73431;-68
2023/02/15 03:17:20;;;;;;;;;;;;;;;18.81;22.39;100973.15;107968;1253;71815;-62
2023/02/15 03:19:48;;;;;;;3.10;1.30;;;;;;;19.09;22.04;100968.53;108036;1253;73320;-62
2023/02/15 03:22:19;;;;;;;1.40;1.30;;;;;;;19.36;21.84;100972.96;108052;1253;60555;-65
2023/02/15 03:24:53;;;;;;;3.80;1.30;;;;;;;19.25;21.76;100970.80;107891;1253;60519;-66
2023/02/15 03:27:25;;;;;;;1.80;1.70;;;;;;;19.38;21.57;100969.13;108172;1253;73655;-66
2023/02/15 03:29:56;;;;;;;2.60;1.50;;;;;;;19.17;21.70;100965.39;107944;1254;71143;-67
2023/02/15 03:32:25;;;;;;;;;;;;;;;18.81;21.77;100970.70;107942;1254;72744;-66
2023/02/15 03:34:53;;;;;;;2.00;1.40;;;;;;;18.02;22.32;100970.83;108051;1254;59551;-67
2023/02/15 03:37:40;;;;;;;3.00;1.70;;;;;;;17.54;22.76;100975.53;107948;1254;61424;-67
2023/02/15 03:43:15;;;;;;;3.40;1.60;;;;;;;18.10;22.53;100975.91;107922;1254;70806;-63
2023/02/15 03:45:54;;;;;;;2.60;1.50;;;;;;;18.43;22.35;100976.21;108064;1254;72941;-66
2023/02/15 03:48:32;;;;;;;3.10;1.60;;;;;;;18.55;22.27;100978.55;107954;1254;60881;-65
2023/02/15 03:53:50;;;;;;;3.20;2.00;;;;;;;18.80;21.87;100980.88;108066;1254;73244;-67
2023/02/15 03:56:18;;;;;;;1.80;1.40;;;;;;;18.70;21.93;100980.93;107876;1254;71660;-67
2023/02/15 04:04:36;;;;;;;2.40;1.80;;;;;;;18.21;22.51;100983.84;108033;1254;60706;-66
2023/02/15 04:07:06;;;;;;;2.80;1.50;;;;;;;17.99;22.51;100988.25;108033;1258;74013;-67
2023/02/15 04:12:22;;;;;;;7.20;1.70;;;;;;;17.89;22.60;100994.61;108005;1254;72862;-66
2023/02/15 04:17:43;;;;;;;4.80;1.60;;;;;;;17.61;22.87;100996.44;108070;1254;59555;-64
2023/02/15 04:25:52;;;;;;;2.90;1.60;;;;;;;18.37;22.38;100999.48;108039;1255;72973;-64
2023/02/15 04:28:20;;;;;;;5.00;1.60;;;;;;;18.69;22.12;100999.84;108022;1254;60562;-67
2023/02/15 04:30:48;;;;;;;2.30;1.70;;;;;;;18.82;21.84;100999.45;108035;1254;61208;-64
2023/02/15 04:33:17;;;;;;;4.50;1.90;;;;;;;18.96;21.90;101001.15;108064;1253;73704;-66
2023/02/15 04:35:45;;;;;;;2.60;1.40;;;;;;;18.79;21.87;100999.80;108094;1253;71635;-62
2023/02/15 04:38:17;;;;;;;2.70;1.50;;;;;;;18.45;22.20;100995.84;108095;1253;73724;-65
2023/02/15 04:40:50;;;;;;;2.40;1.50;;;;;;;18.52;22.17;101000.08;107852;1253;60856;-65
2023/02/15 04:43:19;;;;;;;3.00;1.70;;;;;;;18.47;22.28;101006.94;107960;1253;61512;-67
2023/02/15 04:45:51;;;;;;;3.00;1.70;;;;;;;18.65;22.19;101006.64;108093;1253;73900;-66
2023/02/15 04:48:19;;;;;;;3.00;1.70;;;;;;;18.58;22.18;101005.96;108050;1253;69997;-66
2023/02/15 04:50:47;;;;;;;3.60;1.60;;;;;;;18.90;21.82;101004.16;108031;1253;72086;-64
2023/02/15 04:53:17;;;;;;;3.60;1.80;;;;;;;19.23;21.62;100997.93;108087;1254;59647;-67
2023/02/15 04:55:45;;;;;;;2.40;1.40;;;;;;;18.84;21.89;101006.63;108157;1253;60121;-65
2023/02/15 04:58:14;;;;;;;1.60;1.50;;;;;;;18.79;21.95;101006.39;107936;1253;72398;-66
2023/02/15 05:00:43;;;;;;;2.30;1.40;;;;;;;18.73;22.09;101009.41;108082;1253;71656;-67
2023/02/15 05:03:11;;;;;;;3.20;1.50;;;;;;;18.36;22.23;101013.42;108020;1253;73384;-63
2023/02/15 05:05:40;;;;;;;4.70;1.70;;;;;;;18.44;22.32;101018.14;108055;1253;59570;-63
2023/02/15 05:08:08;;;;;;;2.70;1.70;;;;;;;18.46;22.19;101020.49;108081;1253;61337;-67
2023/02/15 05:10:36;;;;;;;2.10;1.80;;;;;;;18.66;22.03;101028.95;108162;1253;73686;-65
2023/02/15 05:13:06;;;;;;;2.90;1.60;;;;;;;18.35;22.30;101033.48;108082;1253;71019;-65
2023/02/15 05:15:36;;;;;;;4.70;1.70;;;;;;;16.89;23.59;101035.96;108107;1254;70864;-65
2023/02/15 05:18:06;;;;;;;4.30;1.80;;;;;;;17.13;23.64;101041.88;108073;1254;60485;-65
2023/02/15 05:20:34;;;;;;;4.10;2.10;;;;;;;17.27;23.55;101045.42;108071;1253;61426;-65
2023/02/15 05:23:02;;;;;;;3.30;1.50;;;;;;;17.35;23.52;101043.95;107796;1253;74344;-63
2023/02/15 05:28:21;;;;;;;5.10;1.90;;;;;;;18.17;22.99;101044.16;108056;1253;72056;-64
2023/02/15 05:30:50;;;;;;;4.50;1.70;;;;;;;17.85;23.34;101042.06;108014;1253;61051;-65
2023/02/15 05:33:19;;;;;;;3.10;1.70;;;;;;;17.74;23.59;101044.64;107967;1254;61209;-66
2023/02/15 05:35:47;;;;;;;3.70;2.00;;;;;;;17.99;23.36;101042.98;108129;1253;73368;-66
2023/02/15 05:38:15;;;;;;;4.40;1.90;;;;;;;17.80;23.56;101048.23;108166;1253;70532;-65
2023/02/15 05:40:43;;;;;;;6.00;2.20;;;;;;;17.86;23.52;101051.30;108091;1253;72029;-66
2023/02/15 05:43:14;;;;;;;4.60;2.00;;;;;;;18.36;23.07;101048.08;108066;1253;61391;-68
2023/02/15 05:45:53;;;;;;;5.10;2.20;;;;;;;18.58;22.88;101050.77;108074;1257;60225;-64
2023/02/15 05:48:24;;;;;;;5.00;2.80;;;;;;;18.67;22.72;101057.73;108135;1253;72702;-67
2023/02/15 05:51:06;;;;;;;4.50;1.70;;;;;;;18.17;22.86;101055.13;108139;1253;69922;-66
2023/02/15 05:53:36;;;;;;;4.30;2.10;;;;;;;18.19;23.04;101060.54;108127;1253;74258;-66
2023/02/15 05:56:06;;;;;;;9.30;1.70;;;;;;;18.42;22.70;101063.36;108175;1253;62193;-66
2023/02/15 05:58:37;;;;;;;4.10;1.80;;;;;;;18.48;22.60;101064.48;108130;1253;60878;-65
2023/02/15 06:01:21;;;;;;;5.50;1.90;;;;;;;18.52;22.58;101069.96;108110;1253;73822;-66
2023/02/15 06:03:50;;;;;;;7.90;2.40;;;;;;;18.14;22.82;101070.25;108082;1253;70565;-65
2023/02/15 06:06:18;;;;;;;5.70;2.10;;;;;;;18.36;22.64;101070.48;108069;1253;74016;-67
2023/02/15 06:08:46;;;;;;;3.40;2.20;;;;;;;18.43;22.52;101071.18;107994;1253;61643;-68
2023/02/15 06:11:14;;;;;;;4.50;2.00;;;;;;;18.51;22.40;101073.19;108225;1253;61556;-66
2023/02/15 06:13:42;;;;;;;3.90;2.00;;;;;;;18.44;22.39;101070.20;108193;1253;75069;-66
2023/02/15 06:16:13;;;;;;;4.20;2.00;;;;;;;18.76;22.14;101068.45;108125;1253;71561;-67
2023/02/15 06:18:43;;;;;;;2.90;1.90;;;;;;;18.90;21.85;101068.55;108171;1254;71830;-67
2023/02/15 06:21:11;;;;;;;3.40;1.80;;;;;;;18.86;21.97;101067.75;107936;1253;60808;-65
2023/02/15 06:23:40;;;;;;;2.60;2.00;;;;;;;18.71;21.95;101070.90;108181;1253;61325;-66
2023/02/15 06:26:08;;;;;;;2.70;1.70;;;;;;;18.57;21.94;101070.95;108131;1257;74787;-66
2023/02/15 06:28:37;;;;;;;3.20;1.90;;;;;;;18.75;21.91;101061.75;108178;1253;70144;-66
2023/02/15 06:31:05;;;;;;;5.20;1.80;;;;;;;18.88;21.68;101064.96;107932;1253;73533;-67
2023/02/15 06:33:34;;;;;;;6.20;2.00;;;;;;;19.15;21.51;101063.59;108089;1253;60762;-66
2023/02/15 06:36:03;;;;;;;7.30;2.30;;;;;;;19.57;21.23;101068.95;108036;1253;59179;-67
2023/02/15 06:38:32;;;;;;;3.10;1.80;;;;;;;19.73;21.00;101068.56;108130;1253;75054;-65
2023/02/15 06:41:00;;;;;;;2.40;1.90;;;;;;;20.35;20.75;101063.99;107934;1253;70667;-66
2023/02/15 06:43:29;;;;;;;2.50;1.50;;;;;;;21.23;20.12;101058.73;107928;1253;72517;-67
2023/02/15 06:45:57;;;;;;;2.20;1.60;;;;;;;21.87;19.29;101060.23;108097;1253;60226;-66
2023/02/15 06:48:26;;;;;;;3.70;1.40;;;;;;;22.47;19.07;101053.02;108121;1253;61543;-67
2023/02/15 06:50:54;;;;;;;2.50;1.60;;;;;;;23.55;18.08;101048.88;108110;1253;75011;-67
2023/02/15 06:53:23;;;;;;;3.90;1.50;;;;;;;24.47;17.28;101044.91;108108;1253;71291;-67
2023/02/15 06:55:51;;;;;;;5.20;1.60;;;;;;;24.90;16.93;101047.55;108139;1253;72182;-65
2023/02/15 06:58:19;;;;;;;2.90;1.30;;;;;;;24.85;16.74;101048.90;108140;1258;60311;-66
2023/02/15 07:00:49;;;;;;;3.80;1.40;;;;;;;25.00;16.44;101050.27;108111;1253;60329;-67
2023/02/15 07:03:18;;;;;;;4.90;1.70;;;;;;;25.23;16.06;101051.66;108047;1259;74996;-67
2023/02/15 07:05:48;;;;;;;2.70;1.20;;;;;;;25.40;16.06;101053.98;107915;1253;71628;-67
2023/02/15 07:08:16;;;;;;;3.40;1.70;;;;;;;25.84;16.01;101055.39;108121;1258;73574;-66
2023/02/15 07:10:45;;;;;;;4.30;1.20;;;;;;;26.30;15.43;101046.92;108083;1254;59573;-65
2023/02/15 07:13:14;;;;;;;3.90;1.70;;;;;;;26.25;15.70;101049.20;108142;1253;61775;-66
2023/02/15 07:15:47;;;;;;;3.20;1.40;;;;;;;26.70;15.31;101046.61;108105;1258;75316;-66
2023/02/15 07:18:16;;;;;;;2.20;1.30;;;;;;;27.44;14.88;101045.74;107889;1253;71402;-67
2023/02/15 07:20:44;;;;;;;2.30;1.10;;;;;;;27.55;14.58;101033.89;108101;1253;72048;-65
2023/02/15 07:23:12;;;;;;;2.80;0.90;;;;;;;27.42;14.80;101033.63;108110;1253;61318;-66
2023/02/15 07:25:40;;;;;;;2.80;1.30;;;;;;;27.47;14.64;101035.59;108133;1253;60795;-67
2023/02/15 07:28:09;;;;;;;3.40;1.20;;;;;;;27.50;14.53;101033.27;108152;1253;75236;-66
2023/02/15 07:30:37;;;;;;;4.10;1.40;;;;;;;26.97;14.57;101034.55;108295;1250;69485;-65
2023/02/15 07:33:26;;;;;;;3.30;1.40;;;;;;;26.52;14.79;101033.27;108189;1250;73744;-65
2023/02/15 07:35:59;;;;;;;2.10;1.20;;;;;;;26.72;15.03;101036.38;108174;1250;61666;-66
2023/02/15 07:38:33;;;;;;;6.80;1.40;;;;;;;26.26;15.04;101033.73;108251;1250;60284;-66
2023/02/15 07:41:05;;;;;;;2.20;1.20;;;;;;;25.93;15.34;101038.30;108242;1250;73802;-66
2023/02/15 07:43:36;;;;;;;3.40;1.30;;;;;;;25.68;15.45;101038.30;108205;1250;68741;-66
2023/02/15 07:46:07;;;;;;;1.80;1.20;;;;;;;25.75;15.37;101041.14;108234;1254;72415;-68
2023/02/15 07:48:36;;;;;;;1.80;1.20;;;;;;;25.78;15.48;101043.34;108228;1250;60388;-68
2023/02/15 07:51:05;;;;;;;3.10;1.20;;;;;;;26.09;15.32;101046.44;108244;1250;59639;-65
2023/02/15 07:53:34;;;;;;;11.70;1.70;;;;;;;26.42;15.08;101051.61;108211;1250;74903;-66
2023/02/15 07:56:04;;;;;;;2.50;1.10;;;;;;;26.68;14.99;101047.84;108247;1250;70118;-67
2023/02/15 07:58:51;;;;;;;2.40;1.30;;;;;;;27.14;14.76;101055.39;108181;1250;72384;-66
2023/02/15 08:01:25;;;;;;;4.90;1.20;;;;;;;27.76;14.32;101062.38;108162;1250;61400;-67
2023/02/15 08:03:55;;;;;;;1.70;0.90;;;;;;;27.90;13.94;101062.95;108213;1250;61527;-67
2023/02/15 08:06:25;;;;;;;2.30;1.10;;;;;;;27.83;14.01;101063.38;108301;1250;73936;-67
2023/02/15 08:08:53;;;;;;;4.50;1.20;;;;;;;27.95;14.11;101061.38;108212;1250;68555;-68
2023/02/15 08:11:25;;;;;;;2.20;1.10;;;;;;;28.35;14.13;101063.23;108169;1254;73084;-66
2023/02/15 08:14:02;;;;;;;3.70;1.20;;;;;;;28.39;13.71;101066.34;108190;1250;61357;-65
2023/02/15 08:16:33;;;;;;;2.00;1.10;;;;;;;28.40;13.79;101068.56;108248;1250;60367;-67
2023/02/15 08:19:09;;;;;;;3.60;1.00;;;;;;;28.07;13.81;101068.65;108253;1255;75291;-67
2023/02/15 08:21:39;;;;;;;2.30;0.90;;;;;;;28.26;13.99;101058.72;108171;1250;71236;-67
2023/02/15 08:24:08;;;;;;;2.10;1.10;;;;;;;28.38;13.63;101067.65;108234;1250;72703;-67
2023/02/15 08:26:38;;;;;;;1.50;0.90;;;;;;;28.70;13.30;101064.88;108230;1250;60499;-66
2023/02/15 08:29:09;;;;;;;3.00;1.40;;;;;;;28.61;13.53;101062.31;108212;1251;61552;-66
2023/02/15 08:31:37;;;;;;;3.10;1.30;;;;;;;28.51;13.64;101057.73;108179;1254;75056;-67
2023/02/15 08:34:06;;;;;;;2.80;1.00;;;;;;;29.38;13.61;101060.23;108239;1250;71560;-66
2023/02/15 08:36:34;;;;;;;3.20;1.20;;;;;;;30.05;13.13;101064.27;108193;1250;73924;-66
2023/02/15 08:39:04;;;;;;;2.10;1.10;;;;;;;30.62;12.56;101073.06;108176;1251;61615;-67
2023/02/15 08:41:34;;;;;;;1.40;0.90;;;;;;;31.11;12.46;101074.11;108249;1250;60431;-66
2023/02/15 08:44:06;;;;;;;1.80;1.10;;;;;;;31.35;12.18;101076.59;108251;1250;75109;-67
2023/02/15 08:46:36;;;;;;;15.60;1.80;;;;;;;31.77;11.94;101076.86;108223;1250;71574;-66
2023/02/15 08:49:04;;;;;;;2.90;0.90;;;;;;;31.97;11.93;101076.02;108187;1250;73888;-67
2023/02/15 08:51:34;;;;;;;3.20;1.20;;;;;;;31.70;11.97;101076.89;108139;1250;60415;-67
2023/02/15 08:54:04;;;;;;;3.50;1.20;;;;;;;31.43;12.14;101079.93;108217;1250;60458;-65
2023/02/15 08:56:35;;;;;;;2.00;1.00;;;;;;;31.44;11.98;101082.66;108281;1250;73455;-67
2023/02/15 08:59:05;;;;;;;1.80;1.00;;;;;;;31.28;11.94;101080.59;108255;1250;70270;-65
2023/02/15 09:01:34;;;;;;;3.40;1.30;;;;;;;31.20;12.26;101075.30;108286;1250;72590;-65
2023/02/15 09:04:05;;;;;;;1.90;1.00;;;;;;;31.21;11.82;101075.45;108272;1250;61626;-68
2023/02/15 09:06:33;;;;;;;3.00;1.30;;;;;;;31.38;11.68;101073.53;108267;1250;60961;-66
2023/02/15 09:09:03;;;;;;;4.70;1.50;;;;;;;31.05;11.72;101074.43;108238;1250;73330;-67
2023/02/15 09:11:41;;;;;;;2.30;1.20;;;;;;;30.35;12.30;101076.70;108454;1250;71633;-67
2023/02/15 09:14:17;;;;;;;2.70;1.00;;;;;;;30.14;12.46;101080.35;108387;1256;73589;-67
2023/02/15 09:16:48;;;;;;;2.10;1.30;;;;;;;30.13;12.48;101084.98;108251;1251;60421;-66
2023/02/15 09:19:17;;;;;;;9.10;1.40;;;;;;;30.15;12.56;101081.48;108278;1255;61562;-65
2023/02/15 09:21:46;;;;;;;4.10;1.50;;;;;;;29.75;12.60;101077.30;108296;1250;72982;-67
2023/02/15 09:24:15;;;;;;;2.60;1.00;;;;;;;29.77;12.77;101078.34;108324;1250;71581;-66
2023/02/15 09:26:45;;;;;;;4.20;1.00;;;;;;;29.62;12.79;101080.11;108291;1250;72851;-66
2023/02/15 09:29:15;;;;;;;2.30;1.30;;;;;;;29.60;13.09;101081.33;108255;1251;60907;-65
2023/02/15 09:31:48;;;;;;;5.40;1.10;;;;;;;29.70;12.62;101073.83;108296;1251;61528;-67
2023/02/15 09:34:18;;;;;;;9.80;1.90;;;;;;;29.77;12.74;101078.94;108409;1251;72699;-65
2023/02/15 09:36:47;;;;;;;3.40;1.30;;;;;;;29.79;12.89;101075.77;108305;1253;71752;-66
2023/02/15 09:39:17;;;;;;;3.20;1.10;;;;;;;29.66;13.13;101078.41;108336;1253;71246;-65
2023/02/15 09:41:55;;;;;;;2.40;1.30;;;;;;;29.96;13.13;101079.67;108253;1251;61585;-68
2023/02/15 09:44:34;;;;;;;3.90;1.50;;;;;;;30.30;12.89;101081.68;108227;1252;61023;-67
2023/02/15 09:47:30;;;;;;;2.50;1.30;;;;;;;30.20;12.74;101080.94;108215;1251;74099;-65
2023/02/15 09:50:17;;;;;;;3.60;1.50;;;;;;;30.16;12.79;101077.08;108343;1253;71169;-66
2023/02/15 09:53:05;;;;;;;5.10;1.40;;;;;;;30.20;12.52;101074.04;108274;1253;71484;-67
2023/02/15 09:55:56;;;;;;;3.30;1.60;;;;;;;30.08;12.57;101081.48;108315;1251;60440;-67
2023/02/15 09:58:47;;;;;;;2.90;1.30;;;;;;;30.68;12.40;101075.83;108342;1251;60254;-67
2023/02/15 10:01:42;;;;;;;3.20;1.30;;;;;;;30.48;12.52;101074.63;108301;1253;75231;-67
2023/02/15 10:04:38;;;;;;;4.70;1.50;;;;;;;30.23;12.53;101069.78;108348;1254;71280;-68
2023/02/15 10:07:15;;;;;;;3.00;1.40;;;;;;;30.60;12.27;101069.67;108316;1254;72676;-67
2023/02/15 10:09:56;;;;;;;3.60;1.50;;;;;;;30.66;12.14;101067.56;108311;1251;61667;-66
2023/02/15 10:12:47;;;;;;;2.40;1.50;;;;;;;30.96;12.24;101061.23;108326;1252;60980;-66
2023/02/15 10:15:35;;;;;;;3.10;1.30;;;;;;;31.34;11.97;101059.06;108240;1253;75108;-66
2023/02/15 10:18:10;;;;;;;3.80;1.60;;;;;;;31.82;11.86;101059.54;108352;1254;71660;-66
2023/02/15 10:20:54;;;;;;;2.30;1.40;;;;;;;31.94;11.80;101056.41;108320;1256;73355;-66
2023/02/15 10:23:48;;;;;;;2.20;1.30;;;;;;;31.55;12.00;101052.98;108351;1251;61044;-66
2023/02/15 10:26:17;;;;;;;2.80;1.40;;;;;;;31.52;11.84;101058.17;108287;1251;61196;-67
2023/02/15 10:28:47;;;;;;;2.90;1.20;;;;;;;31.45;11.85;101061.66;108427;1251;75008;-68
2023/02/15 10:31:22;;;;;;;;;;;;;;;31.40;11.70;101061.75;108326;1256;71827;-68
2023/02/15 10:34:22;;;;;;;4.20;1.50;;;;;;;30.68;12.03;101064.61;108322;1252;73088;-66
2023/02/15 10:37:13;;;;;;;5.00;1.50;;;;;;;30.70;12.02;101061.32;108353;1251;60312;-68
2023/02/15 10:40:00;;;;;;;5.80;1.30;;;;;;;30.91;11.97;101057.28;108365;1251;60320;-68
2023/02/15 10:42:43;;;;;;;2.70;1.30;;;;;;;30.77;11.64;101061.85;108294;1251;74192;-68
2023/02/15 10:45:31;;;;;;;6.30;1.50;;;;;;;30.46;12.00;101057.36;108321;1251;72008;-67
2023/02/15 10:48:15;;;;;;;2.60;1.40;;;;;;;29.98;12.29;101059.34;108108;1251;73591;-66
2023/02/15 10:50:47;;;;;;;5.10;0.90;;;;;;;29.89;12.21;101060.30;108406;1251;60441;-68
2023/02/15 10:53:44;;;;;;;4.80;1.50;;;;;;;29.59;12.21;101059.54;108230;1252;61694;-68
2023/02/15 10:56:16;;;;;;;4.50;1.60;;;;;;;29.30;12.24;101051.56;108271;1251;74042;-68
2023/02/15 10:59:10;;;;;;;2.20;1.10;;;;;;;29.40;12.25;101052.13;108214;1252;68334;-68
2023/02/15 11:02:09;;;;;;;2.60;1.20;;;;;;;29.18;12.07;101050.62;108063;1256;73841;-67
2023/02/15 11:04:53;;;;;;;3.30;1.30;;;;;;;29.39;12.04;101049.98;108367;1254;60370;-67
2023/02/15 11:07:33;;;;;;;2.80;1.30;;;;;;;29.62;12.06;101057.31;108233;1251;61011;-67
2023/02/15 11:10:51;;;;;;;8.40;1.40;;;;;;;29.72;11.74;101065.83;108264;1256;75299;-66
2023/02/15 11:13:25;;;;;;;3.10;1.40;;;;;;;29.15;12.08;101053.77;108298;1251;69639;-66
2023/02/15 11:16:05;;;;;;;5.60;1.30;;;;;;;28.89;12.12;101056.69;108317;1253;72994;-67
2023/02/15 11:18:35;;;;;;;1.30;1.00;;;;;;;28.87;12.00;101052.75;108310;1251;61155;-69
2023/02/15 11:21:19;;;;;;;1.80;0.90;;;;;;;28.82;12.12;101052.88;108292;1254;61024;-65
2023/02/15 11:23:48;;;;;;;3.70;1.30;;;;;;;29.21;11.96;101057.70;108267;1256;74005;-67
2023/02/15 11:26:33;;;;;;;3.30;1.40;;;;;;;29.50;11.80;101052.17;108295;1257;70243;-67
2023/02/15 11:29:17;;;;;;;2.20;1.30;;;;;;;29.08;11.82;101048.98;108297;1253;74316;-66
2023/02/15 11:31:48;;;;;;;3.00;1.50;;;;;;;29.11;11.82;101048.95;108375;1251;61568;-68
2023/02/15 11:34:19;;;;;;;;;;;;;;;29.21;11.78;101049.88;108410;1256;60931;-68
2023/02/15 11:36:47;;;;;;;4.50;1.40;;;;;;;29.31;11.83;101052.88;108324;1256;74712;-70
2023/02/15 11:39:16;;;;;;;2.40;1.10;;;;;;;29.27;11.64;101050.16;108058;1256;71341;-68
2023/02/15 11:41:51;;;;;;;3.90;1.10;;;;;;;28.96;11.56;101051.81;108346;1251;70490;-68
2023/02/15 11:44:31;;;;;;;3.70;0.90;;;;;;;28.81;11.52;101045.91;108354;1254;60420;-67
2023/02/15 11:47:01;;;;;;;2.00;1.00;;;;;;;28.89;11.29;101048.92;108318;1253;60439;-67
2023/02/15 11:49:33;;;;;;;1.50;1.00;;;;;;;29.13;11.23;101053.55;108220;1254;74031;-68
2023/02/15 11:52:05;;;;;;;2.40;1.10;;;;;;;29.13;11.26;101049.75;108164;1251;71067;-66
2023/02/15 11:54:35;;;;;;;2.30;1.10;;;;;;;29.43;11.06;101051.27;108330;1251;73610;-69
2023/02/15 11:57:14;;;;;;;3.20;1.00;;;;;;;29.45;10.84;101042.39;108328;1251;59241;-66
2023/02/15 11:59:46;;;;;;;3.20;1.20;;;;;;;29.36;10.77;101036.59;108150;1251;60202;-67
2023/02/15 12:02:20;;;;;;;2.00;1.20;;;;;;;29.50;10.84;101038.40;108367;1255;74963;-67
2023/02/15 12:04:54;;;;;;;2.70;1.30;;;;;;;29.85;10.94;101036.98;108351;1251;71309;-67
2023/02/15 12:07:51;;;;;;;1.80;0.90;;;;;;;29.60;10.56;101035.06;108128;1256;72803;-67
2023/02/15 12:10:24;;;;;;;2.20;1.00;;;;;;;29.33;10.82;101032.20;108269;1255;62226;-67